Stavros S. Niarchos — MZIU7 — position and weather

sailwx.info

Track history (hours):
 
Tides and Currents Weather Stations Pressure Air Temp Water Temp Dewpoint Dewpoint Depression Visibility Wind Speed Wind Dir Waves Ship Positions

Stavros S. Niarchos

See http://www.classic-sailing.co.uk/ for bookings.

Ship's website: http://www.tallships.org/

Last reported at 2017-Jun-26 11:58 UTC. Time now 2017-Jun-26 11:58 UTC.
Position N 54°53' W 001°21'.

Length 59.4 m; beam 9.9 m; draft 4.5 m.

Type: Sailing vessel. MMSI: 232007330.

Date/timePositionNaut miles runAvg speedWind from/ knotsBaromVisibWave heightAir tempDewpointWater temp
2017-Jun-26 11:58N 54°53' W 001°21'0 0.0
2017-Jun-26 11:16N 54°53' W 001°21'0 0.0
2017-Jun-26 10:58N 54°53' W 001°21'0 0.0
2017-Jun-26 10:28N 54°53' W 001°21'0 0.0
2017-Jun-26 09:58N 54°53' W 001°21'0 0.0
2017-Jun-26 09:28N 54°53' W 001°21'0 0.0
2017-Jun-26 08:57N 54°53' W 001°21'0 0.0
2017-Jun-26 08:22N 54°53' W 001°21'0 0.0
2017-Jun-26 07:49N 54°53' W 001°21'0 0.0
2017-Jun-26 07:16N 54°53' W 001°21'0 0.1
2017-Jun-26 06:52N 54°53' W 001°20'0 0.0
2017-Jun-26 06:19N 54°53' W 001°20'0 0.0
2017-Jun-26 05:49N 54°53' W 001°20'0 0.0
2017-Jun-26 05:21N 54°53' W 001°20'0 0.0
2017-Jun-26 04:55N 54°53' W 001°20'0 0.0
2017-Jun-26 04:19N 54°53' W 001°20'0 0.0
2017-Jun-26 03:52N 54°53' W 001°21'0 0.0
2017-Jun-26 03:25N 54°53' W 001°21'0 0.0
2017-Jun-26 02:55N 54°53' W 001°21'0 0.0
2017-Jun-26 02:28N 54°53' W 001°21'0 0.0
2017-Jun-26 01:58N 54°53' W 001°21'0 0.0
2017-Jun-26 01:28N 54°53' W 001°21'0 0.0
2017-Jun-26 00:58N 54°53' W 001°20'0 0.0
2017-Jun-26 00:25N 54°53' W 001°20'0 0.0
2017-Jun-25 23:58N 54°53' W 001°20'0 0.0
2017-Jun-25 23:28N 54°53' W 001°20'0 0.0
2017-Jun-25 22:58N 54°53' W 001°20'0 0.1
2017-Jun-25 22:28N 54°53' W 001°21'0 0.0
2017-Jun-25 21:46N 54°53' W 001°21'0 0.0
2017-Jun-25 21:30N 54°53' W 001°21'0 0.0
2017-Jun-25 21:01N 54°53' W 001°21'0 0.2
2017-Jun-25 20:31N 54°53' W 001°20'0 0.2
2017-Jun-25 20:01N 54°53' W 001°21'0 0.1
2017-Jun-25 19:30N 54°53' W 001°21'0 0.0
2017-Jun-25 19:01N 54°53' W 001°20'0 0.1
2017-Jun-25 18:16N 54°53' W 001°20'0 0.0
2017-Jun-25 17:48N 54°53' W 001°20'0 0.3
2017-Jun-25 17:30N 54°53' W 001°21'3 5.6
2017-Jun-25 17:00N 54°52' W 001°16'5 6.9
2017-Jun-25 16:17N 54°49' W 001°09'2 7.0
2017-Jun-25 16:00N 54°48' W 001°07'32 0.7
2017-Jun-23 17:14N 54°26' W 000°28'1 6.3
2017-Jun-23 17:00N 54°26' W 000°25'3 6.1
2017-Jun-23 16:31N 54°25' W 000°20'2 4.1
2017-Jun-23 16:00N 54°25' W 000°16'1 2.2
2017-Jun-23 15:30N 54°24' W 000°15'1 2.9
2017-Jun-23 15:00N 54°23' W 000°14'5 4.5
2017-Jun-23 14:00N 54°19' W 000°10'3 5.0
2017-Jun-23 13:30N 54°17' W 000°07'2 3.3
2017-Jun-23 13:00N 54°16' W 000°06'2 4.4
2017-Jun-23 12:30N 54°14' W 000°04'2 3.9
2017-Jun-23 12:00N 54°12' W 000°03'2 3.1
2017-Jun-23 11:30N 54°11' W 000°02'2 3.5
2017-Jun-23 11:00N 54°09' E 000°00'4 7.3
2017-Jun-23 10:30N 54°07' E 000°05'68 8.2
2017-Jun-23 02:12N 53°13' E 001°16'2 9.1
2017-Jun-23 01:59N 53°11' E 001°18'5 9.6
2017-Jun-23 01:30N 53°07' E 001°21'510.1
2017-Jun-23 01:00N 53°04' E 001°26'510.4
2017-Jun-23 00:30N 52°60' E 001°32'510.7
2017-Jun-23 00:00N 52°55' E 001°38'510.3
2017-Jun-22 23:30N 52°52' E 001°44'5 9.9
2017-Jun-22 22:59N 52°49' E 001°51'5 9.2
2017-Jun-22 22:29N 52°46' E 001°56'5 9.5
2017-Jun-22 21:59N 52°41' E 001°59'73 7.8
2017-Jun-22 12:37N 51°34' E 002°44'110.1
2017-Jun-22 12:30N 51°33' E 002°44'510.4
2017-Jun-22 12:01N 51°28' E 002°43'4 7.9
2017-Jun-22 11:30N 51°24' E 002°44'3 6.2
2017-Jun-22 11:00N 51°21' E 002°47'4 7.4
2017-Jun-22 10:30N 51°19' E 002°51'4 7.7
2017-Jun-22 10:00N 51°15' E 002°54'2 3.8
2017-Jun-22 09:29N 51°14' E 002°56'0 0.2
2017-Jun-22 08:59N 51°13' E 002°56'0 0.0
2017-Jun-22 08:30N 51°13' E 002°56'0 0.0
2017-Jun-22 08:00N 51°13' E 002°56'0 0.0
2017-Jun-22 07:29N 51°13' E 002°56'0 0.0
2017-Jun-22 06:59N 51°13' E 002°56'0 0.0
2017-Jun-22 06:30N 51°13' E 002°56'0 0.0
2017-Jun-22 06:00N 51°13' E 002°56'0 0.0
2017-Jun-22 05:29N 51°13' E 002°56'0 0.0
2017-Jun-22 04:57N 51°13' E 002°56'0 0.0
2017-Jun-22 04:27N 51°13' E 002°56'0 0.0
2017-Jun-22 03:59N 51°13' E 002°56'0 0.0
2017-Jun-22 03:29N 51°13' E 002°56'0 0.0
2017-Jun-22 02:57N 51°13' E 002°56'0 0.0
2017-Jun-22 02:29N 51°13' E 002°56'0 0.0
2017-Jun-22 01:59N 51°13' E 002°56'0 0.0
2017-Jun-22 01:29N 51°13' E 002°56'0 0.0
2017-Jun-22 00:57N 51°13' E 002°56'0 0.0
2017-Jun-22 00:30N 51°13' E 002°56'0 0.0
2017-Jun-21 23:59N 51°13' E 002°56'0 0.0
2017-Jun-21 23:29N 51°13' E 002°56'0 0.0
2017-Jun-21 22:59N 51°13' E 002°56'0 0.0
2017-Jun-21 22:30N 51°13' E 002°56'0 0.0
2017-Jun-21 21:59N 51°13' E 002°56'0 0.0
2017-Jun-21 21:26N 51°13' E 002°56'0 0.0
2017-Jun-21 20:59N 51°13' E 002°56'0 0.0
2017-Jun-21 20:29N 51°13' E 002°56'0 0.0
2017-Jun-21 19:59N 51°13' E 002°56'0 0.0
2017-Jun-21 19:29N 51°13' E 002°56'0 0.0
2017-Jun-21 18:59N 51°13' E 002°56'0 0.0
2017-Jun-21 18:29N 51°13' E 002°56'0 0.0
2017-Jun-21 17:59N 51°13' E 002°56'0 0.0
2017-Jun-21 17:29N 51°13' E 002°56'0 0.0
2017-Jun-21 16:59N 51°13' E 002°56'0 0.0
2017-Jun-21 16:29N 51°13' E 002°56'0 0.0
2017-Jun-21 15:56N 51°13' E 002°56'0 0.0
2017-Jun-21 15:29N 51°13' E 002°56'0 0.0
2017-Jun-21 14:59N 51°13' E 002°56'0 0.0
2017-Jun-21 14:29N 51°13' E 002°56'0 0.0
2017-Jun-21 13:29N 51°13' E 002°56'0 0.0
2017-Jun-21 12:59N 51°13' E 002°56'0 0.0
2017-Jun-21 12:29N 51°13' E 002°56'0 0.0
2017-Jun-21 11:59N 51°13' E 002°56'0 0.0
2017-Jun-21 11:29N 51°13' E 002°56'0 0.0
2017-Jun-21 10:59N 51°13' E 002°56'0 0.0
2017-Jun-21 10:29N 51°13' E 002°56'0 0.0
2017-Jun-21 09:59N 51°13' E 002°56'0 0.1
2017-Jun-21 09:31N 51°13' E 002°56'0 0.3
2017-Jun-21 09:01N 51°14' E 002°56'2 3.6
2017-Jun-21 08:30N 51°15' E 002°54'1 2.3
2017-Jun-21 07:59N 51°16' E 002°53'0 0.2
2017-Jun-21 07:29N 51°16' E 002°53'0 0.0
2017-Jun-21 06:59N 51°16' E 002°53'0 0.0
2017-Jun-21 06:29N 51°16' E 002°53'0 0.0
2017-Jun-21 05:59N 51°16' E 002°53'0 0.0
2017-Jun-21 05:29N 51°16' E 002°53'0 0.0
2017-Jun-21 04:59N 51°16' E 002°53'0 0.0
2017-Jun-21 04:29N 51°16' E 002°53'0 0.0
2017-Jun-21 03:59N 51°16' E 002°53'0 0.0
2017-Jun-21 03:29N 51°16' E 002°53'0 0.0
2017-Jun-21 02:59N 51°16' E 002°53'0 0.0
2017-Jun-21 02:29N 51°16' E 002°53'0 0.0
2017-Jun-21 01:59N 51°16' E 002°53'0 0.0
2017-Jun-21 01:29N 51°16' E 002°53'0 0.0
2017-Jun-21 00:59N 51°16' E 002°53'0 0.0
2017-Jun-21 00:29N 51°16' E 002°53'0 0.8
2017-Jun-21 00:01N 51°16' E 002°53'3 5.8
2017-Jun-20 23:30N 51°18' E 002°50'4 8.1
2017-Jun-20 23:01N 51°21' E 002°45'4 8.2
2017-Jun-20 22:31N 51°22' E 002°39'4 8.5
2017-Jun-20 22:00N 51°22' E 002°32'4 8.7
2017-Jun-20 21:30N 51°20' E 002°25'4 8.9
2017-Jun-20 21:00N 51°19' E 002°19'4 8.7
2017-Jun-20 20:30N 51°19' E 002°12'5 8.7
2017-Jun-20 19:59N 51°20' E 002°05'4 8.5
2017-Jun-20 19:30N 51°22' E 001°60'4 8.5
2017-Jun-20 19:00N 51°26' E 001°56'4 8.8
2017-Jun-20 18:31N 51°29' E 001°51'4 7.3
2017-Jun-20 18:00N 51°29' E 001°45'3 6.7
2017-Jun-20 17:30N 51°29' E 001°40'3 6.7
2017-Jun-20 17:01N 51°29' E 001°35'4 7.1
2017-Jun-20 16:31N 51°28' E 001°29'5 7.7
2017-Jun-20 15:51N 51°29' E 001°21'3 7.8
2017-Jun-20 15:31N 51°29' E 001°17'4 8.3
2017-Jun-20 15:01N 51°29' E 001°10'9 8.4
2017-Jun-20 13:55N 51°29' E 000°55'4 9.1
2017-Jun-20 13:30N 51°29' E 000°50'5 9.8
2017-Jun-20 13:00N 51°30' E 000°42'510.4
2017-Jun-20 12:31N 51°30' E 000°33'5 9.2
2017-Jun-20 12:01N 51°28' E 000°27'4 7.5
2017-Jun-20 11:30N 51°27' E 000°21'4 8.7
2017-Jun-20 11:00N 51°28' E 000°15'5 9.0
2017-Jun-20 10:30N 51°31' E 000°08'  
2017-Jun-16 15:21N 51°30' W 000°01'4 2.7
2017-Jun-16 14:00N 51°30' E 000°05'4 7.5
2017-Jun-16 13:30N 51°30' E 000°11'4 8.8
2017-Jun-16 13:01N 51°28' E 000°17'4 7.1
2017-Jun-16 12:31N 51°27' E 000°23'2 3.8
2017-Jun-16 12:01N 51°27' E 000°26'3 6.9
2017-Jun-16 11:31N 51°30' E 000°29'  
Track history (hours):
 
Tides and Currents Weather Stations Pressure Air Temp Water Temp Dewpoint Dewpoint Depression Visibility Wind Speed Wind Dir Waves Ship Positions

Stavros S. Niarchos

See http://www.classic-sailing.co.uk/ for bookings.

Ship's website: http://www.tallships.org/

Last reported at 2017-Jun-26 11:58 UTC. Time now 2017-Jun-26 11:58 UTC.
Position N 54°53' W 001°21'.

Length 59.4 m; beam 9.9 m; draft 4.5 m.

Type: Sailing vessel. MMSI: 232007330.

Date/timePositionNaut miles runAvg speedWind from/ knotsBaromVisibWave heightAir tempDewpointWater temp
2017-Jun-26 11:58N 54°53' W 001°21'0 0.0
2017-Jun-26 11:16N 54°53' W 001°21'0 0.0
2017-Jun-26 10:58N 54°53' W 001°21'0 0.0
2017-Jun-26 10:28N 54°53' W 001°21'0 0.0
2017-Jun-26 09:58N 54°53' W 001°21'0 0.0
2017-Jun-26 09:28N 54°53' W 001°21'0 0.0
2017-Jun-26 08:57N 54°53' W 001°21'0 0.0
2017-Jun-26 08:22N 54°53' W 001°21'0 0.0
2017-Jun-26 07:49N 54°53' W 001°21'0 0.0
2017-Jun-26 07:16N 54°53' W 001°21'0 0.1
2017-Jun-26 06:52N 54°53' W 001°20'0 0.0
2017-Jun-26 06:19N 54°53' W 001°20'0 0.0
2017-Jun-26 05:49N 54°53' W 001°20'0 0.0
2017-Jun-26 05:21N 54°53' W 001°20'0 0.0
2017-Jun-26 04:55N 54°53' W 001°20'0 0.0
2017-Jun-26 04:19N 54°53' W 001°20'0 0.0
2017-Jun-26 03:52N 54°53' W 001°21'0 0.0
2017-Jun-26 03:25N 54°53' W 001°21'0 0.0
2017-Jun-26 02:55N 54°53' W 001°21'0 0.0
2017-Jun-26 02:28N 54°53' W 001°21'0 0.0
2017-Jun-26 01:58N 54°53' W 001°21'0 0.0
2017-Jun-26 01:28N 54°53' W 001°21'0 0.0
2017-Jun-26 00:58N 54°53' W 001°20'0 0.0
2017-Jun-26 00:25N 54°53' W 001°20'0 0.0
2017-Jun-25 23:58N 54°53' W 001°20'0 0.0
2017-Jun-25 23:28N 54°53' W 001°20'0 0.0
2017-Jun-25 22:58N 54°53' W 001°20'0 0.1
2017-Jun-25 22:28N 54°53' W 001°21'0 0.0
2017-Jun-25 21:46N 54°53' W 001°21'0 0.0
2017-Jun-25 21:30N 54°53' W 001°21'0 0.0
2017-Jun-25 21:01N 54°53' W 001°21'0 0.2
2017-Jun-25 20:31N 54°53' W 001°20'0 0.2
2017-Jun-25 20:01N 54°53' W 001°21'0 0.1
2017-Jun-25 19:30N 54°53' W 001°21'0 0.0
2017-Jun-25 19:01N 54°53' W 001°20'0 0.1
2017-Jun-25 18:16N 54°53' W 001°20'0 0.0
2017-Jun-25 17:48N 54°53' W 001°20'0 0.3
2017-Jun-25 17:30N 54°53' W 001°21'3 5.6
2017-Jun-25 17:00N 54°52' W 001°16'5 6.9
2017-Jun-25 16:17N 54°49' W 001°09'2 7.0
2017-Jun-25 16:00N 54°48' W 001°07'32 0.7
2017-Jun-23 17:14N 54°26' W 000°28'1 6.3
2017-Jun-23 17:00N 54°26' W 000°25'3 6.1
2017-Jun-23 16:31N 54°25' W 000°20'2 4.1
2017-Jun-23 16:00N 54°25' W 000°16'1 2.2
2017-Jun-23 15:30N 54°24' W 000°15'1 2.9
2017-Jun-23 15:00N 54°23' W 000°14'5 4.5
2017-Jun-23 14:00N 54°19' W 000°10'3 5.0
2017-Jun-23 13:30N 54°17' W 000°07'2 3.3
2017-Jun-23 13:00N 54°16' W 000°06'2 4.4
2017-Jun-23 12:30N 54°14' W 000°04'2 3.9
2017-Jun-23 12:00N 54°12' W 000°03'2 3.1
2017-Jun-23 11:30N 54°11' W 000°02'2 3.5
2017-Jun-23 11:00N 54°09' E 000°00'4 7.3
2017-Jun-23 10:30N 54°07' E 000°05'68 8.2
2017-Jun-23 02:12N 53°13' E 001°16'2 9.1
2017-Jun-23 01:59N 53°11' E 001°18'5 9.6
2017-Jun-23 01:30N 53°07' E 001°21'510.1
2017-Jun-23 01:00N 53°04' E 001°26'510.4
2017-Jun-23 00:30N 52°60' E 001°32'510.7
2017-Jun-23 00:00N 52°55' E 001°38'510.3
2017-Jun-22 23:30N 52°52' E 001°44'5 9.9
2017-Jun-22 22:59N 52°49' E 001°51'5 9.2
2017-Jun-22 22:29N 52°46' E 001°56'5 9.5
2017-Jun-22 21:59N 52°41' E 001°59'73 7.8
2017-Jun-22 12:37N 51°34' E 002°44'110.1
2017-Jun-22 12:30N 51°33' E 002°44'510.4
2017-Jun-22 12:01N 51°28' E 002°43'4 7.9
2017-Jun-22 11:30N 51°24' E 002°44'3 6.2
2017-Jun-22 11:00N 51°21' E 002°47'4 7.4
2017-Jun-22 10:30N 51°19' E 002°51'4 7.7
2017-Jun-22 10:00N 51°15' E 002°54'2 3.8
2017-Jun-22 09:29N 51°14' E 002°56'0 0.2
2017-Jun-22 08:59N 51°13' E 002°56'0 0.0
2017-Jun-22 08:30N 51°13' E 002°56'0 0.0
2017-Jun-22 08:00N 51°13' E 002°56'0 0.0
2017-Jun-22 07:29N 51°13' E 002°56'0 0.0
2017-Jun-22 06:59N 51°13' E 002°56'0 0.0
2017-Jun-22 06:30N 51°13' E 002°56'0 0.0
2017-Jun-22 06:00N 51°13' E 002°56'0 0.0
2017-Jun-22 05:29N 51°13' E 002°56'0 0.0
2017-Jun-22 04:57N 51°13' E 002°56'0 0.0
2017-Jun-22 04:27N 51°13' E 002°56'0 0.0
2017-Jun-22 03:59N 51°13' E 002°56'0 0.0
2017-Jun-22 03:29N 51°13' E 002°56'0 0.0
2017-Jun-22 02:57N 51°13' E 002°56'0 0.0
2017-Jun-22 02:29N 51°13' E 002°56'0 0.0
2017-Jun-22 01:59N 51°13' E 002°56'0 0.0
2017-Jun-22 01:29N 51°13' E 002°56'0 0.0
2017-Jun-22 00:57N 51°13' E 002°56'0 0.0
2017-Jun-22 00:30N 51°13' E 002°56'0 0.0
2017-Jun-21 23:59N 51°13' E 002°56'0 0.0
2017-Jun-21 23:29N 51°13' E 002°56'0 0.0
2017-Jun-21 22:59N 51°13' E 002°56'0 0.0
2017-Jun-21 22:30N 51°13' E 002°56'0 0.0
2017-Jun-21 21:59N 51°13' E 002°56'0 0.0
2017-Jun-21 21:26N 51°13' E 002°56'0 0.0
2017-Jun-21 20:59N 51°13' E 002°56'0 0.0
2017-Jun-21 20:29N 51°13' E 002°56'0 0.0
2017-Jun-21 19:59N 51°13' E 002°56'0 0.0
2017-Jun-21 19:29N 51°13' E 002°56'0 0.0
2017-Jun-21 18:59N 51°13' E 002°56'0 0.0
2017-Jun-21 18:29N 51°13' E 002°56'0 0.0
2017-Jun-21 17:59N 51°13' E 002°56'0 0.0
2017-Jun-21 17:29N 51°13' E 002°56'0 0.0
2017-Jun-21 16:59N 51°13' E 002°56'0 0.0
2017-Jun-21 16:29N 51°13' E 002°56'0 0.0
2017-Jun-21 15:56N 51°13' E 002°56'0 0.0
2017-Jun-21 15:29N 51°13' E 002°56'0 0.0
2017-Jun-21 14:59N 51°13' E 002°56'0 0.0
2017-Jun-21 14:29N 51°13' E 002°56'0 0.0
2017-Jun-21 13:29N 51°13' E 002°56'0 0.0
2017-Jun-21 12:59N 51°13' E 002°56'0 0.0
2017-Jun-21 12:29N 51°13' E 002°56'0 0.0
2017-Jun-21 11:59N 51°13' E 002°56'0 0.0
2017-Jun-21 11:29N 51°13' E 002°56'0 0.0
2017-Jun-21 10:59N 51°13' E 002°56'0 0.0
2017-Jun-21 10:29N 51°13' E 002°56'0 0.0
2017-Jun-21 09:59N 51°13' E 002°56'0 0.1
2017-Jun-21 09:31N 51°13' E 002°56'0 0.3
2017-Jun-21 09:01N 51°14' E 002°56'2 3.6
2017-Jun-21 08:30N 51°15' E 002°54'1 2.3
2017-Jun-21 07:59N 51°16' E 002°53'0 0.2
2017-Jun-21 07:29N 51°16' E 002°53'0 0.0
2017-Jun-21 06:59N 51°16' E 002°53'0 0.0
2017-Jun-21 06:29N 51°16' E 002°53'0 0.0
2017-Jun-21 05:59N 51°16' E 002°53'0 0.0
2017-Jun-21 05:29N 51°16' E 002°53'0 0.0
2017-Jun-21 04:59N 51°16' E 002°53'0 0.0
2017-Jun-21 04:29N 51°16' E 002°53'0 0.0
2017-Jun-21 03:59N 51°16' E 002°53'0 0.0
2017-Jun-21 03:29N 51°16' E 002°53'0 0.0
2017-Jun-21 02:59N 51°16' E 002°53'0 0.0
2017-Jun-21 02:29N 51°16' E 002°53'0 0.0
2017-Jun-21 01:59N 51°16' E 002°53'0 0.0
2017-Jun-21 01:29N 51°16' E 002°53'0 0.0
2017-Jun-21 00:59N 51°16' E 002°53'0 0.0
2017-Jun-21 00:29N 51°16' E 002°53'0 0.8
2017-Jun-21 00:01N 51°16' E 002°53'3 5.8
2017-Jun-20 23:30N 51°18' E 002°50'4 8.1
2017-Jun-20 23:01N 51°21' E 002°45'4 8.2
2017-Jun-20 22:31N 51°22' E 002°39'4 8.5
2017-Jun-20 22:00N 51°22' E 002°32'4 8.7
2017-Jun-20 21:30N 51°20' E 002°25'4 8.9
2017-Jun-20 21:00N 51°19' E 002°19'4 8.7
2017-Jun-20 20:30N 51°19' E 002°12'5 8.7
2017-Jun-20 19:59N 51°20' E 002°05'4 8.5
2017-Jun-20 19:30N 51°22' E 001°60'4 8.5
2017-Jun-20 19:00N 51°26' E 001°56'4 8.8
2017-Jun-20 18:31N 51°29' E 001°51'4 7.3
2017-Jun-20 18:00N 51°29' E 001°45'3 6.7
2017-Jun-20 17:30N 51°29' E 001°40'3 6.7
2017-Jun-20 17:01N 51°29' E 001°35'4 7.1
2017-Jun-20 16:31N 51°28' E 001°29'5 7.7
2017-Jun-20 15:51N 51°29' E 001°21'3 7.8
2017-Jun-20 15:31N 51°29' E 001°17'4 8.3
2017-Jun-20 15:01N 51°29' E 001°10'9 8.4
2017-Jun-20 13:55N 51°29' E 000°55'4 9.1
2017-Jun-20 13:30N 51°29' E 000°50'5 9.8
2017-Jun-20 13:00N 51°30' E 000°42'510.4
2017-Jun-20 12:31N 51°30' E 000°33'5 9.2
2017-Jun-20 12:01N 51°28' E 000°27'4 7.5
2017-Jun-20 11:30N 51°27' E 000°21'4 8.7
2017-Jun-20 11:00N 51°28' E 000°15'5 9.0
2017-Jun-20 10:30N 51°31' E 000°08'  
2017-Jun-16 15:21N 51°30' W 000°01'4 2.7
2017-Jun-16 14:00N 51°30' E 000°05'4 7.5
2017-Jun-16 13:30N 51°30' E 000°11'4 8.8
2017-Jun-16 13:01N 51°28' E 000°17'4 7.1
2017-Jun-16 12:31N 51°27' E 000°23'2 3.8
2017-Jun-16 12:01N 51°27' E 000°26'3 6.9
2017-Jun-16 11:31N 51°30' E 000°29'  

Dump ship's entire track history